Time;durP1;ratioP1;P1;durP2;ratioP2;P2;SDS_P1;SDS_P2;PMS_P1;PMS_P2;Temp;Humidity;BMP_temperature;BMP_pressure;BME280_temperature;BME280_humidity;BME280_pressure;Samples;Min_cycle;Max_cycle;Signal;HPM_P1;HPM_P2
2023/10/11 00:02:55;;;;;;;9.90;4.73;;;;;;;11.51;100.00;98315.00;6256339;28;20246;-50
2023/10/11 00:05:59;;;;;;;8.07;5.50;;;;;;;11.48;100.00;98314.69;6253532;28;20224;-50
2023/10/11 00:09:02;;;;;;;11.93;5.40;;;;;;;11.45;100.00;98318.63;6257445;28;20353;-51
2023/10/11 00:12:04;;;;;;;8.50;4.87;;;;;;;11.42;100.00;98312.94;6256737;28;20215;-50
2023/10/11 00:15:10;;;;;;;8.83;4.93;;;;;;;11.38;100.00;98315.25;6255758;28;20226;-51
2023/10/11 00:18:12;;;;;;;7.80;4.57;;;;;;;11.30;100.00;98315.59;6257360;28;20623;-51
2023/10/11 00:21:18;;;;;;;10.63;4.17;;;;;;;11.24;100.00;98314.66;6256061;28;20226;-47
2023/10/11 00:24:23;;;;;;;8.20;4.50;;;;;;;11.24;100.00;98311.19;6239928;28;20219;-47
2023/10/11 00:27:28;;;;;;;9.47;4.80;;;;;;;11.24;100.00;98313.84;6253061;28;20235;-50
2023/10/11 00:30:30;;;;;;;13.20;5.10;;;;;;;11.18;100.00;98306.75;6256684;28;20683;-51
2023/10/11 00:33:33;;;;;;;10.40;5.10;;;;;;;11.13;100.00;98309.28;6238454;28;20605;-50
2023/10/11 00:36:45;;;;;;;12.00;5.03;;;;;;;11.01;100.00;98294.09;6255195;28;20230;-48
2023/10/11 00:39:51;;;;;;;11.47;5.53;;;;;;;11.12;100.00;98303.16;6255405;28;20711;-49
2023/10/11 00:42:59;;;;;;;12.97;5.83;;;;;;;11.17;100.00;98302.47;6254051;28;20231;-51
2023/10/11 00:46:08;;;;;;;13.10;5.83;;;;;;;11.18;100.00;98293.41;6239876;28;20219;-50
2023/10/11 00:49:13;;;;;;;11.53;5.23;;;;;;;11.09;100.00;98290.31;6242804;28;20231;-48
2023/10/11 00:52:16;;;;;;;10.47;5.70;;;;;;;10.90;100.00;98276.25;6252059;28;20230;-51
2023/10/11 00:55:29;;;;;;;13.60;5.83;;;;;;;11.08;100.00;98291.31;6238242;28;20242;-49
2023/10/11 00:58:32;;;;;;;11.17;5.10;;;;;;;11.10;100.00;98281.25;6255482;28;20242;-50
2023/10/11 01:01:36;;;;;;;10.60;5.87;;;;;;;11.08;100.00;98281.50;6254574;28;20285;-50
2023/10/11 01:04:41;;;;;;;13.23;5.30;;;;;;;11.01;100.00;98275.44;6237986;28;20226;-49
2023/10/11 01:07:49;;;;;;;11.17;5.53;;;;;;;10.98;100.00;98269.75;6255063;28;20234;-50
2023/10/11 01:10:53;;;;;;;12.67;4.80;;;;;;;11.04;100.00;98263.50;6237856;28;20242;-51
2023/10/11 01:13:55;;;;;;;14.70;5.40;;;;;;;10.98;100.00;98261.75;6255487;28;20239;-50
2023/10/11 01:16:59;;;;;;;9.03;5.00;;;;;;;10.86;100.00;98259.06;6251036;28;20227;-51
2023/10/11 01:20:04;;;;;;;9.50;5.73;;;;;;;10.85;100.00;98260.13;6255311;28;20237;-50
2023/10/11 01:23:07;;;;;;;11.60;5.17;;;;;;;10.81;100.00;98258.94;6253723;28;20345;-52
2023/10/11 01:26:09;;;;;;;15.13;5.50;;;;;;;10.77;100.00;98253.25;6250319;28;20377;-52
2023/10/11 01:29:12;;;;;;;9.73;5.20;;;;;;;10.79;100.00;98256.53;6237696;28;20219;-47
2023/10/11 01:32:14;;;;;;;8.47;4.40;;;;;;;10.71;100.00;98246.19;6245689;28;20237;-50
2023/10/11 01:35:19;;;;;;;7.83;5.10;;;;;;;10.78;100.00;98264.72;6241296;28;20265;-49
2023/10/11 01:38:24;;;;;;;7.57;4.83;;;;;;;10.82;100.00;98252.56;6236759;28;20254;-51
2023/10/11 01:41:27;;;;;;;9.43;4.50;;;;;;;10.87;100.00;98263.34;6234324;28;20235;-51
2023/10/11 01:44:31;;;;;;;16.33;4.70;;;;;;;10.78;100.00;98244.22;6254279;28;20226;-50
2023/10/11 01:47:34;;;;;;;12.87;4.80;;;;;;;10.77;100.00;98255.91;6254515;28;20237;-50
2023/10/11 01:50:37;;;;;;;11.50;4.63;;;;;;;10.75;100.00;98260.69;6237221;28;20702;-49
2023/10/11 01:53:40;;;;;;;13.67;5.07;;;;;;;10.69;100.00;98258.94;6238217;28;20230;-50
2023/10/11 01:56:43;;;;;;;12.70;4.93;;;;;;;10.63;100.00;98256.34;6255360;28;20702;-50
2023/10/11 01:59:46;;;;;;;8.47;3.93;;;;;;;10.54;100.00;98246.03;6235945;28;20230;-50
2023/10/11 02:03:12;;;;;;;9.90;4.33;;;;;;;10.57;100.00;98252.75;6236012;28;20318;-49
2023/10/11 02:06:14;;;;;;;8.67;4.27;;;;;;;10.58;100.00;98252.50;6259206;28;20755;-51
2023/10/11 02:09:20;;;;;;;11.97;5.07;;;;;;;10.63;100.00;98253.69;6254140;28;20583;-51
2023/10/11 02:12:24;;;;;;;10.57;4.80;;;;;;;10.27;100.00;98213.63;6253936;28;20253;-51
2023/10/11 02:15:29;;;;;;;8.20;4.63;;;;;;;10.53;100.00;98256.91;6239014;28;20222;-51
2023/10/11 02:18:31;;;;;;;10.47;4.50;;;;;;;10.53;100.00;98256.91;6253815;28;20313;-49
2023/10/11 02:21:36;;;;;;;9.30;4.63;;;;;;;10.49;100.00;98258.38;6253619;28;20227;-51
2023/10/11 02:24:39;;;;;;;8.37;4.73;;;;;;;10.47;100.00;98250.63;6250880;28;20222;-51
2023/10/11 02:27:42;;;;;;;15.07;4.90;;;;;;;10.47;100.00;98249.81;6234609;28;20309;-51
2023/10/11 02:30:44;;;;;;;7.87;4.40;;;;;;;10.45;100.00;98246.59;6235738;28;20242;-51
2023/10/11 02:33:51;;;;;;;10.57;4.60;;;;;;;10.41;100.00;98254.22;6255660;28;20313;-50
2023/10/11 02:36:56;;;;;;;10.17;4.80;;;;;;;10.44;100.00;98253.78;6259386;28;20219;-53
2023/10/11 02:39:59;;;;;;;11.00;4.50;;;;;;;10.48;100.00;98243.44;6239286;28;20309;-50
2023/10/11 02:43:03;;;;;;;11.90;4.70;;;;;;;10.45;100.00;98244.72;6250039;28;20283;-51
2023/10/11 02:46:05;;;;;;;10.63;4.83;;;;;;;10.30;100.00;98228.34;6254719;28;20214;-50
2023/10/11 02:49:18;;;;;;;10.43;4.67;;;;;;;10.40;100.00;98241.13;6253223;28;20716;-49
2023/10/11 02:52:29;;;;;;;10.77;4.30;;;;;;;10.40;100.00;98233.94;6250120;28;20261;-51
2023/10/11 02:55:38;;;;;;;16.00;5.20;;;;;;;10.42;100.00;98239.03;6225899;28;20581;-49
2023/10/11 02:58:40;;;;;;;12.33;4.53;;;;;;;10.38;100.00;98225.34;6253176;28;20230;-51
2023/10/11 03:01:43;;;;;;;14.53;5.17;;;;;;;10.49;100.00;98242.41;6251288;28;20253;-51
2023/10/11 03:04:45;;;;;;;10.87;5.17;;;;;;;10.51;100.00;98238.50;6253924;28;20241;-49
2023/10/11 03:07:47;;;;;;;10.77;5.10;;;;;;;10.49;100.00;98235.25;6259043;28;20238;-49
2023/10/11 03:10:53;;;;;;;12.43;5.53;;;;;;;10.61;100.00;98237.13;6252289;28;20237;-50
2023/10/11 03:13:55;;;;;;;12.67;5.37;;;;;;;10.65;100.00;98232.97;6258026;28;20261;-51
2023/10/11 03:17:05;;;;;;;13.97;5.53;;;;;;;10.65;100.00;98228.44;6258964;28;20233;-51
2023/10/11 03:20:27;;;;;;;11.23;4.67;;;;;;;10.71;100.00;98232.84;6256703;28;20308;-52
2023/10/11 03:23:31;;;;;;;12.60;5.20;;;;;;;10.77;100.00;98228.47;6256890;28;20227;-50
2023/10/11 03:26:38;;;;;;;15.87;5.40;;;;;;;10.69;100.00;98210.13;6258959;28;20229;-53
2023/10/11 03:29:41;;;;;;;9.77;5.23;;;;;;;10.76;100.00;98218.84;6257708;28;20230;-53
2023/10/11 03:32:44;;;;;;;10.97;4.37;;;;;;;10.77;100.00;98220.47;6258041;28;20230;-49
2023/10/11 03:35:48;;;;;;;17.83;5.77;;;;;;;10.74;100.00;98215.63;6258345;28;20913;-52
2023/10/11 03:38:54;;;;;;;15.53;5.40;;;;;;;10.76;100.00;98218.84;6263992;28;20306;-51
2023/10/11 03:42:07;;;;;;;9.77;4.47;;;;;;;10.77;100.00;98217.81;6256997;28;20230;-52
2023/10/11 03:45:10;;;;;;;15.10;4.80;;;;;;;10.79;100.00;98213.06;6254214;28;20237;-52
2023/10/11 03:48:14;;;;;;;9.93;5.20;;;;;;;10.77;100.00;98209.81;6257237;28;20602;-49
2023/10/11 03:51:19;;;;;;;15.77;5.50;;;;;;;10.82;100.00;98218.72;6255561;28;20242;-51
2023/10/11 03:54:25;;;;;;;9.40;5.03;;;;;;;10.85;100.00;98212.16;6263104;28;20234;-49
2023/10/11 03:57:27;;;;;;;11.40;5.60;;;;;;;10.77;100.00;98217.81;6256608;28;20299;-51
2023/10/11 04:00:46;;;;;;;13.03;5.43;;;;;;;10.80;100.00;98217.34;6260956;28;20218;-50
2023/10/11 04:03:49;;;;;;;13.30;5.47;;;;;;;10.78;100.00;98209.56;6257826;28;20230;-51
2023/10/11 04:06:57;;;;;;;10.97;4.63;;;;;;;10.77;100.00;98205.28;6256271;28;20227;-51
2023/10/11 04:10:09;;;;;;;11.10;4.67;;;;;;;10.71;100.00;98205.41;6255469;28;20244;-50
2023/10/11 04:13:15;;;;;;;11.40;4.57;;;;;;;10.78;100.00;98216.75;6251330;28;20237;-52
2023/10/11 04:16:17;;;;;;;13.13;4.53;;;;;;;10.72;100.00;98220.34;6256295;28;20243;-51
2023/10/11 04:19:21;;;;;;;7.97;3.93;;;;;;;10.67;100.00;98220.22;6256369;28;20268;-51
2023/10/11 04:22:23;;;;;;;16.77;5.00;;;;;;;10.66;100.00;98215.94;6257036;28;20230;-52
2023/10/11 04:25:26;;;;;;;6.93;4.43;;;;;;;10.63;100.00;98216.38;6255925;28;20260;-51
2023/10/11 04:28:28;;;;;;;12.20;5.53;;;;;;;10.62;100.00;98215.56;6256514;28;20312;-52
2023/10/11 04:31:42;;;;;;;13.57;5.13;;;;;;;10.61;100.00;98218.47;6257834;28;20259;-52
2023/10/11 04:34:48;;;;;;;15.90;4.57;;;;;;;10.49;100.00;98205.09;6252300;28;20313;-50
2023/10/11 04:38:01;;;;;;;16.03;4.87;;;;;;;10.51;100.00;98211.84;6258770;28;20355;-48
2023/10/11 04:41:05;;;;;;;8.80;4.33;;;;;;;10.53;100.00;98209.75;6239167;28;20239;-51
2023/10/11 04:44:13;;;;;;;9.00;4.10;;;;;;;10.52;100.00;98212.66;6256192;28;20330;-50
2023/10/11 04:47:17;;;;;;;13.37;4.43;;;;;;;10.47;100.00;98215.19;6253727;28;20230;-48
2023/10/11 04:50:22;;;;;;;10.47;4.13;;;;;;;10.46;100.00;98214.38;6256474;28;21083;-49
2023/10/11 04:53:32;;;;;;;6.73;4.13;;;;;;;10.43;100.00;98216.69;6256826;28;20230;-50
2023/10/11 04:59:47;;;;;;;9.43;3.83;;;;;;;10.40;100.00;98214.50;6256223;28;20281;-51
2023/10/11 05:02:58;;;;;;;7.03;3.80;;;;;;;10.37;100.00;98213.09;6253629;28;20242;-50
2023/10/11 05:06:02;;;;;;;7.50;3.47;;;;;;;10.40;100.00;98222.47;6255669;28;20268;-51
2023/10/11 05:09:21;;;;;;;5.93;2.90;;;;;;;10.44;100.00;98215.63;6258551;28;20304;-51
2023/10/11 05:12:24;;;;;;;5.70;2.87;;;;;;;10.43;100.00;98230.00;6254897;28;20599;-50
2023/10/11 05:15:29;;;;;;;6.40;3.53;;;;;;;10.39;100.00;98232.28;6255811;28;20230;-52
2023/10/11 05:18:37;;;;;;;3.90;2.83;;;;;;;10.37;100.00;98228.25;6255605;28;20893;-51
2023/10/11 05:21:40;;;;;;;8.27;3.20;;;;;;;10.31;100.00;98232.63;6252522;28;20246;-51
2023/10/11 05:31:34;;;;;;;6.83;2.90;;;;;;;10.20;100.00;98239.50;6252790;28;20238;-51
2023/10/11 05:35:07;;;;;;;5.90;2.90;;;;;;;10.17;100.00;98239.16;6253338;28;20251;-51
2023/10/11 05:51:39;;;;;;;10.80;3.50;;;;;;;10.08;100.00;98249.28;6252190;28;20239;-51
2023/10/11 05:54:45;;;;;;;7.20;4.07;;;;;;;10.07;100.00;98263.63;6255045;28;20231;-50
2023/10/11 05:57:48;;;;;;;10.33;5.13;;;;;;;9.91;100.00;98243.78;6254825;28;20262;-49
2023/10/11 06:00:53;;;;;;;9.73;4.03;;;;;;;10.07;100.00;98263.63;6253293;28;20258;-50
2023/10/11 06:03:57;;;;;;;11.17;4.23;;;;;;;10.04;100.00;98272.88;6251532;28;20253;-48
2023/10/11 06:06:59;;;;;;;9.37;3.97;;;;;;;9.98;100.00;98255.13;6220261;28;20238;-50
2023/10/11 06:10:06;;;;;;;8.63;3.80;;;;;;;10.05;100.00;98266.53;6238657;28;20233;-50
2023/10/11 06:13:13;;;;;;;9.33;3.50;;;;;;;10.05;100.00;98266.53;6251375;28;20320;-50
2023/10/11 06:16:16;;;;;;;9.30;3.57;;;;;;;10.06;100.00;98273.47;6255396;28;20325;-49
2023/10/11 06:19:19;;;;;;;7.70;3.87;;;;;;;10.12;100.00;98269.09;6254489;28;20328;-50
2023/10/11 06:22:28;;;;;;;5.70;3.57;;;;;;;10.19;100.00;98274.34;6253023;28;20234;-51
2023/10/11 06:25:49;;;;;;;7.90;3.90;;;;;;;10.24;100.00;98275.31;6250350;28;20237;-51
2023/10/11 06:29:02;;;;;;;8.03;3.60;;;;;;;10.27;100.00;98277.53;6251691;28;20234;-50
2023/10/11 06:32:11;;;;;;;11.50;3.73;;;;;;;10.22;100.00;98260.59;6253511;28;20243;-50
2023/10/11 06:35:25;;;;;;;9.90;3.83;;;;;;;10.32;100.00;98276.88;6251377;28;20233;-51
2023/10/11 06:38:41;;;;;;;5.40;3.73;;;;;;;10.33;100.00;98267.84;6250350;28;20736;-51
2023/10/11 06:41:50;;;;;;;5.03;3.00;;;;;;;10.39;100.00;98277.56;6246921;28;20227;-53
2023/10/11 06:44:58;;;;;;;5.73;3.30;;;;;;;10.36;100.00;98269.25;6252516;28;20238;-48
2023/10/11 06:48:08;;;;;;;7.70;3.30;;;;;;;10.46;100.00;98285.50;6252609;28;20238;-53
2023/10/11 06:51:13;;;;;;;5.67;3.00;;;;;;;10.49;100.00;98283.19;6253500;28;20231;-51
2023/10/11 06:54:15;;;;;;;6.37;3.10;;;;;;;10.54;100.00;98285.16;6254587;28;20219;-51
2023/10/11 06:57:21;;;;;;;10.77;3.73;;;;;;;10.59;100.00;98283.47;6254423;28;20230;-51
2023/10/11 07:00:27;;;;;;;5.40;3.40;;;;;;;10.63;100.00;98285.66;6252680;28;20241;-52
2023/10/11 07:03:34;;;;;;;5.83;3.37;;;;;;;10.70;100.00;98286.38;6247380;28;20235;-51
2023/10/11 07:06:37;;;;;;;9.17;3.93;;;;;;;10.75;100.00;98283.84;6253709;28;20230;-50
2023/10/11 07:09:39;;;;;;;10.30;4.47;;;;;;;10.80;100.00;98289.31;6247998;28;20239;-49
2023/10/11 07:12:42;;;;;;;6.73;3.80;;;;;;;10.88;100.00;98288.16;6252480;28;20242;-50
2023/10/11 07:15:46;;;;;;;6.07;3.77;;;;;;;10.95;100.00;98283.56;6252549;28;20643;-50
2023/10/11 07:18:54;;;;;;;6.87;3.80;;;;;;;11.03;100.00;98293.88;6234458;28;20376;-51
2023/10/11 07:22:02;;;;;;;7.30;3.93;;;;;;;11.07;100.00;98285.19;6253856;28;20261;-50
2023/10/11 07:25:36;;;;;;;11.00;4.20;;;;;;;11.20;100.00;98288.69;6252937;28;20257;-50
2023/10/11 07:28:36;;;;;;;7.63;3.90;;;;;;;11.23;100.00;98281.03;6253243;28;20426;-50
2023/10/11 07:31:49;;;;;;;12.83;4.03;;;;;;;11.43;100.00;98287.88;6253141;28;20256;-50
2023/10/11 07:34:54;;;;;;;10.57;4.40;;;;;;;11.51;100.00;98284.84;6235171;28;20226;-53
2023/10/11 07:37:57;;;;;;;6.23;3.43;;;;;;;11.59;100.00;98295.19;6252721;28;20310;-52
2023/10/11 07:41:05;;;;;;;7.70;4.30;;;;;;;11.69;100.00;98284.75;6254074;28;20721;-52
2023/10/11 07:44:08;;;;;;;7.67;3.90;;;;;;;11.77;100.00;98284.38;6249519;28;20309;-49
2023/10/11 07:47:25;;;;;;;11.17;4.63;;;;;;;11.90;100.00;98288.69;6250698;28;20732;-51
2023/10/11 07:50:28;;;;;;;10.87;4.20;;;;;;;12.04;100.00;98286.56;6253111;28;20219;-49
2023/10/11 07:53:32;;;;;;;12.37;4.30;;;;;;;12.02;100.00;98264.59;6251895;28;20710;-49
2023/10/11 07:56:38;;;;;;;6.17;5.13;;;;;;;12.25;100.00;98288.59;6256981;28;20263;-51
2023/10/11 07:59:41;;;;;;;10.00;5.10;;;;;;;12.41;100.00;98284.34;6255659;28;20233;-50
2023/10/11 08:03:08;;;;;;;5.47;3.63;;;;;;;12.53;100.00;98285.13;6257431;28;20227;-50
2023/10/11 08:06:12;;;;;;;8.10;4.63;;;;;;;12.68;100.00;98279.22;6252446;28;20636;-53
2023/10/11 08:09:21;;;;;;;5.83;3.83;;;;;;;12.74;100.00;98270.25;6257269;28;20559;-52
2023/10/11 08:12:24;;;;;;;10.77;4.63;;;;;;;13.00;100.00;98276.03;6242564;28;20310;-50
2023/10/11 08:15:27;;;;;;;7.50;4.80;;;;;;;13.16;100.00;98277.91;6257278;28;20227;-52
2023/10/11 08:18:30;;;;;;;7.00;4.17;;;;;;;13.30;100.00;98275.72;6257269;28;20699;-51
2023/10/11 08:21:33;;;;;;;7.67;4.53;;;;;;;13.41;100.00;98275.66;6256806;28;20219;-50
2023/10/11 08:24:58;;;;;;;6.70;4.10;;;;;;;13.56;100.00;98272.38;6248992;28;20262;-51
2023/10/11 08:28:34;;;;;;;5.67;4.40;;;;;;;13.72;100.00;98268.03;6254236;28;20223;-48
2023/10/11 08:31:37;;;;;;;7.90;4.50;;;;;;;13.89;100.00;98273.34;6255165;28;20242;-50
2023/10/11 08:34:51;;;;;;;9.70;5.87;;;;;;;14.08;100.00;98268.47;6257437;28;20714;-53
2023/10/11 08:37:54;;;;;;;6.77;4.77;;;;;;;14.17;100.00;98265.13;6256760;28;20265;-50
2023/10/11 08:40:59;;;;;;;8.23;5.10;;;;;;;14.34;100.00;98270.41;6257106;28;20309;-52
2023/10/11 08:44:08;;;;;;;7.63;4.13;;;;;;;14.50;100.00;98271.41;6243051;28;20607;-48
2023/10/11 08:47:13;;;;;;;8.07;4.70;;;;;;;14.65;100.00;98260.03;6253200;28;20262;-51
2023/10/11 08:50:18;;;;;;;5.00;4.40;;;;;;;14.76;100.00;98258.25;6255483;28;20309;-51
2023/10/11 08:53:22;;;;;;;8.60;4.57;;;;;;;14.93;100.00;98256.28;6252479;28;20726;-51
2023/10/11 08:56:24;;;;;;;10.17;5.30;;;;;;;15.08;100.00;98250.22;6239280;28;20231;-50
2023/10/11 08:59:30;;;;;;;6.97;4.70;;;;;;;15.20;100.00;98256.19;6234571;28;20601;-52
2023/10/11 09:02:34;;;;;;;10.50;5.57;;;;;;;15.34;100.00;98243.94;6253774;28;20289;-50
2023/10/11 09:05:43;;;;;;;13.07;6.30;;;;;;;15.51;100.00;98253.72;6257588;28;20741;-48
2023/10/11 09:08:47;;;;;;;6.97;5.03;;;;;;;15.62;100.00;98248.16;6253393;28;20681;-50
2023/10/11 09:11:54;;;;;;;11.83;5.23;;;;;;;15.73;100.00;98255.22;6259961;28;20235;-51
2023/10/11 09:15:04;;;;;;;10.80;5.37;;;;;;;15.79;100.00;98231.88;6253874;28;20675;-48
2023/10/11 09:18:15;;;;;;;9.20;5.60;;;;;;;16.01;100.00;98242.47;6236683;28;20683;-51
2023/10/11 09:21:21;;;;;;;12.83;5.17;;;;;;;16.14;100.00;98241.97;6253667;28;20239;-48
2023/10/11 09:24:28;;;;;;;10.17;5.20;;;;;;;16.27;100.00;98243.34;6256382;28;20295;-53
2023/10/11 09:27:49;;;;;;;9.87;4.73;;;;;;;16.39;100.00;98241.22;6253924;28;20231;-51
2023/10/11 09:31:25;;;;;;;9.50;5.03;;;;;;;16.52;100.00;98240.72;6251935;28;20832;-51
2023/10/11 09:34:31;;;;;;;7.53;5.00;;;;;;;16.64;100.00;98235.06;6153261;28;20721;-49
2023/10/11 09:37:33;;;;;;;11.47;5.13;;;;;;;16.74;100.00;98234.31;6156980;28;20599;-50
2023/10/11 09:40:37;;;;;;;7.83;4.27;;;;;;;16.83;100.00;98232.69;6155053;28;20248;-51
2023/10/11 09:43:44;;;;;;;13.90;4.30;;;;;;;16.89;100.00;98231.63;6158975;28;20249;-48
2023/10/11 09:46:48;;;;;;;8.00;4.57;;;;;;;16.96;100.00;98237.56;6154881;28;20236;-52
2023/10/11 09:49:53;;;;;;;9.50;3.93;;;;;;;17.00;100.00;98232.44;6154732;28;20902;-50
2023/10/11 09:53:00;;;;;;;8.87;4.07;;;;;;;17.08;100.00;98244.53;6155447;28;20249;-52
2023/10/11 09:56:15;;;;;;;7.53;4.20;;;;;;;17.18;100.00;98242.66;6135602;28;20739;-52
2023/10/11 09:59:29;;;;;;;10.30;3.93;;;;;;;17.26;100.00;98236.72;6154060;28;20308;-48
2023/10/11 10:02:36;;;;;;;6.30;3.80;;;;;;;17.33;100.00;98238.34;6153204;28;20769;-52
2023/10/11 10:06:19;;;;;;;9.40;4.00;;;;;;;17.40;100.00;98228.91;6155110;28;20690;-50
2023/10/11 10:12:31;;;;;;;10.83;3.50;;;;;;;17.57;100.00;98238.56;6177786;28;20244;-50
2023/10/11 10:15:46;;;;;;;6.53;4.03;;;;;;;17.67;100.00;98238.53;6179187;28;20221;-49
2023/10/11 10:19:24;;;;;;;4.63;2.70;;;;;;;17.73;100.00;98245.53;6176588;28;20228;-47
2023/10/11 10:22:33;;;;;;;6.07;2.90;;;;;;;17.76;100.00;98232.34;6178304;28;20312;-49
2023/10/11 10:25:35;;;;;;;3.67;2.93;;;;;;;17.81;100.00;98228.81;6177994;28;20578;-51
2023/10/11 10:28:42;;;;;;;5.57;3.37;;;;;;;17.87;100.00;98233.09;6182935;28;20236;-48
2023/10/11 10:32:04;;;;;;;7.80;3.40;;;;;;;17.87;100.00;98221.50;6176892;28;20241;-51
2023/10/11 10:35:19;;;;;;;3.23;2.80;;;;;;;18.01;100.00;98228.72;6174607;28;20244;-52
2023/10/11 10:38:22;;;;;;;11.37;3.50;;;;;;;18.03;100.00;98225.78;6174146;28;20225;-49
2023/10/11 10:41:33;;;;;;;6.03;3.30;;;;;;;18.04;100.00;98219.28;6178327;28;20237;-53
2023/10/11 10:44:49;;;;;;;5.87;2.87;;;;;;;18.15;100.00;98220.06;6258692;28;20243;-48
2023/10/11 10:47:51;;;;;;;5.03;2.83;;;;;;;18.19;100.00;98219.22;6251457;28;20231;-50
2023/10/11 10:51:04;;;;;;;4.60;3.00;;;;;;;18.16;100.00;98202.78;6253444;28;20227;-49
2023/10/11 10:54:14;;;;;;;3.97;2.83;;;;;;;18.29;100.00;98221.84;6239321;28;20231;-51
2023/10/11 10:57:23;;;;;;;7.57;3.40;;;;;;;18.38;100.00;98215.88;6252496;28;20211;-49
2023/10/11 11:00:30;;;;;;;3.80;3.47;;;;;;;18.47;100.00;98211.50;6234163;28;20706;-52
2023/10/11 11:03:35;;;;;;;4.07;3.17;;;;;;;18.55;100.00;98194.72;6251113;28;20235;-52
2023/10/11 11:06:39;;;;;;;6.63;3.37;;;;;;;18.60;100.00;98193.88;6249404;28;20227;-49
2023/10/11 11:09:41;;;;;;;5.20;3.20;;;;;;;18.64;100.00;98194.94;6251225;28;20295;-48
2023/10/11 11:12:44;;;;;;;5.97;3.40;;;;;;;18.71;100.00;98185.44;6251901;28;20944;-49
2023/10/11 11:15:47;;;;;;;4.70;3.00;;;;;;;18.77;100.00;98180.84;6230943;28;20242;-52
2023/10/11 11:18:49;;;;;;;3.70;3.17;;;;;;;18.81;100.00;98174.56;6248792;28;20223;-53
2023/10/11 11:22:11;;;;;;;3.90;2.80;;;;;;;18.86;100.00;98175.59;6251557;28;20235;-50
2023/10/11 11:25:27;;;;;;;5.33;2.83;;;;;;;18.91;99.51;98170.97;6250465;28;20706;-49
2023/10/11 11:28:39;;;;;;;6.80;2.80;;;;;;;19.03;97.56;98176.81;6253221;28;20238;-50
2023/10/11 11:31:55;;;;;;;6.07;3.53;;;;;;;19.21;91.35;98172.59;6251647;28;20241;-51
2023/10/11 11:35:04;;;;;;;6.57;3.33;;;;;;;19.40;90.30;98169.94;6256657;28;20249;-51
2023/10/11 11:38:07;;;;;;;3.37;2.73;;;;;;;19.47;91.83;98165.00;6256611;28;20578;-50
2023/10/11 11:41:16;;;;;;;5.77;3.20;;;;;;;19.54;91.54;98168.16;6257836;28;20231;-48
2023/10/11 11:44:27;;;;;;;6.37;2.73;;;;;;;19.66;90.68;98165.09;6257603;28;20710;-50
2023/10/11 11:47:29;;;;;;;7.43;3.10;;;;;;;19.73;90.54;98165.53;6258148;28;20317;-49
2023/10/11 11:50:37;;;;;;;5.30;2.90;;;;;;;19.77;90.19;98161.16;6254334;28;20254;-49
2023/10/11 11:53:43;;;;;;;6.03;3.23;;;;;;;19.81;89.72;98156.81;6247392;28;20239;-51
2023/10/11 11:56:47;;;;;;;6.80;3.33;;;;;;;19.91;83.54;98155.88;6259096;28;20223;-50
2023/10/11 11:59:49;;;;;;;6.03;3.17;;;;;;;19.98;87.00;98158.19;6253504;28;20219;-49
2023/10/11 12:02:58;;;;;;;5.33;3.47;;;;;;;20.00;85.75;98150.59;6258690;28;20610;-49
2023/10/11 12:06:02;;;;;;;8.00;2.90;;;;;;;20.09;84.03;98148.84;6259460;28;20304;-50
2023/10/11 12:09:05;;;;;;;7.60;3.40;;;;;;;20.15;83.23;98146.88;6240610;28;20239;-48
2023/10/11 12:12:07;;;;;;;6.67;3.13;;;;;;;20.19;82.79;98146.00;6255951;28;20729;-48
2023/10/11 12:15:16;;;;;;;3.97;2.67;;;;;;;20.16;86.26;98138.47;6259440;28;20313;-53
2023/10/11 12:18:35;;;;;;;8.43;3.50;;;;;;;20.11;87.27;98138.56;6259591;28;20226;-51
2023/10/11 12:21:40;;;;;;;7.33;2.87;;;;;;;20.10;87.90;98129.63;6258746;28;20694;-50
2023/10/11 12:24:45;;;;;;;7.37;3.37;;;;;;;20.08;88.78;98139.13;6259952;28;20234;-51
2023/10/11 12:27:47;;;;;;;7.70;3.27;;;;;;;20.03;89.37;98128.38;6255574;28;20361;-49
2023/10/11 12:30:50;;;;;;;7.23;3.33;;;;;;;20.04;88.61;98124.56;6259466;28;20702;-51
2023/10/11 12:33:53;;;;;;;8.30;3.40;;;;;;;20.04;88.00;98132.69;6259422;28;20300;-49
2023/10/11 12:36:55;;;;;;;8.03;3.60;;;;;;;20.05;87.14;98124.31;6258694;28;20601;-48
2023/10/11 12:39:58;;;;;;;5.63;3.50;;;;;;;20.09;84.82;98124.50;6255171;28;20257;-46
2023/10/11 12:43:06;;;;;;;6.73;3.80;;;;;;;20.06;87.30;98122.41;6262890;28;20230;-52
2023/10/11 12:46:09;;;;;;;8.23;3.80;;;;;;;20.31;80.13;98129.31;6253254;28;20231;-52
2023/10/11 12:49:17;;;;;;;7.50;3.53;;;;;;;20.26;86.63;98134.81;6256990;28;20234;-50
2023/10/11 12:52:19;;;;;;;9.83;3.43;;;;;;;20.09;88.79;98138.81;6254270;28;20239;-51
2023/10/11 12:55:22;;;;;;;9.03;4.10;;;;;;;19.98;86.88;98129.25;6257453;28;20638;-52
2023/10/11 12:58:39;;;;;;;7.97;3.27;;;;;;;19.93;87.20;98136.63;6257683;28;20731;-51
2023/10/11 13:01:57;;;;;;;7.03;3.70;;;;;;;19.85;87.08;98129.97;6252477;28;20607;-52
2023/10/11 13:05:00;;;;;;;7.53;3.63;;;;;;;19.87;85.74;98124.28;6252360;28;20318;-51
2023/10/11 13:08:02;;;;;;;5.00;3.37;;;;;;;19.79;89.22;98128.44;6255752;28;20885;-52
2023/10/11 13:11:11;;;;;;;8.63;3.83;;;;;;;19.72;89.81;98120.69;6255171;28;20706;-51
2023/10/11 13:14:19;;;;;;;6.17;3.50;;;;;;;19.78;89.16;98127.63;6252613;28;20251;-50
2023/10/11 13:17:26;;;;;;;7.93;3.27;;;;;;;19.72;89.67;98117.97;6255199;28;20226;-51
2023/10/11 13:20:31;;;;;;;6.87;3.70;;;;;;;19.71;89.88;98116.38;6252133;28;20322;-51
2023/10/11 13:23:36;;;;;;;5.63;2.90;;;;;;;19.61;90.97;98116.50;6253169;28;20621;-48
2023/10/11 13:26:43;;;;;;;6.57;3.77;;;;;;;19.58;92.66;98112.44;6253825;28;20278;-51
2023/10/11 13:29:47;;;;;;;8.03;3.27;;;;;;;19.48;92.69;98103.66;6253866;28;20289;-51
2023/10/11 13:32:51;;;;;;;9.03;3.80;;;;;;;19.52;94.36;98108.22;6252996;28;20461;-49
2023/10/11 13:35:54;;;;;;;9.07;4.23;;;;;;;19.44;94.61;98111.53;6253045;28;20380;-50
2023/10/11 13:38:56;;;;;;;5.77;3.60;;;;;;;19.41;95.60;98111.31;6254514;28;20810;-50
2023/10/11 13:42:04;;;;;;;7.30;3.60;;;;;;;19.39;96.31;98100.00;6253538;28;20235;-51
2023/10/11 13:45:09;;;;;;;6.77;3.57;;;;;;;19.38;96.17;98101.88;6253752;28;20772;-51
2023/10/11 13:48:13;;;;;;;9.00;3.77;;;;;;;19.36;96.55;98109.50;6259525;28;20930;-49
2023/10/11 13:51:17;;;;;;;6.37;3.30;;;;;;;19.40;97.68;98115.09;6253435;28;20683;-53
2023/10/11 13:54:36;;;;;;;4.80;3.53;;;;;;;19.41;97.54;98098.63;6238068;28;20348;-49
2023/10/11 13:57:40;;;;;;;8.50;3.47;;;;;;;19.42;98.27;98102.13;6253333;28;20234;-50
2023/10/11 14:03:48;;;;;;;4.87;3.33;;;;;;;19.44;99.00;98092.63;6255771;28;20219;-51
2023/10/11 14:10:36;;;;;;;4.90;3.23;;;;;;;19.42;100.00;98091.31;6250974;28;20314;-52
2023/10/11 14:13:38;;;;;;;7.80;3.10;;;;;;;19.38;100.00;98080.28;6250442;28;20654;-51
2023/10/11 14:16:41;;;;;;;5.53;3.07;;;;;;;19.32;100.00;98082.25;6235037;28;20235;-50
2023/10/11 14:19:46;;;;;;;7.43;3.50;;;;;;;19.23;100.00;98070.47;6252927;28;20242;-49
2023/10/11 14:22:53;;;;;;;5.80;3.80;;;;;;;19.18;100.00;98069.72;6254761;28;20602;-51
2023/10/11 14:25:57;;;;;;;7.13;3.10;;;;;;;19.04;100.00;98056.09;6252014;28;20239;-51
2023/10/11 14:29:05;;;;;;;8.57;3.70;;;;;;;19.07;100.00;98069.03;6252771;28;20231;-51
2023/10/11 14:32:10;;;;;;;6.33;3.73;;;;;;;18.98;100.00;98065.34;6235815;28;20265;-51
2023/10/11 14:35:14;;;;;;;7.53;3.67;;;;;;;18.91;100.00;98065.66;6252722;28;20609;-50
2023/10/11 14:38:17;;;;;;;5.43;3.20;;;;;;;18.86;100.00;98057.63;6252891;28;20227;-49
2023/10/11 14:41:24;;;;;;;8.93;3.70;;;;;;;18.81;100.00;98061.19;6253026;28;20237;-49
2023/10/11 14:44:26;;;;;;;10.33;3.67;;;;;;;18.75;100.00;98051.53;6253043;28;20926;-51
2023/10/11 14:47:29;;;;;;;9.63;4.10;;;;;;;18.69;100.00;98036.50;6252256;28;20231;-50
2023/10/11 14:50:34;;;;;;;8.17;3.87;;;;;;;18.59;100.00;98039.25;6251509;28;20938;-51
2023/10/11 14:53:36;;;;;;;8.17;4.23;;;;;;;18.45;100.00;98033.72;6252890;28;20246;-50
2023/10/11 14:56:38;;;;;;;7.07;3.70;;;;;;;18.43;100.00;98035.91;6249598;28;20231;-48
2023/10/11 14:59:40;;;;;;;11.10;3.53;;;;;;;18.31;100.00;98046.25;6235159;28;20239;-50
2023/10/11 15:02:43;;;;;;;9.07;4.37;;;;;;;18.22;100.00;98048.75;6252060;28;20369;-51